»·PEaware :: N282LP KAVX-KSAN

N282LP :: KAVX-KSAN

FLIGHT INFORMATION

Flight Status: Arrived
Operator: Privately registered:
United States
More flights under this callsign
Pilot: Kelly J. (15787)
Aircraft: CESSNA 172 SKYHAWK
(C172)
More flights by this aircraft type
Origin: KAVX Catalina
United States
Destination: KSAN San Diego Intl-Lindbergh
United States
More flights between these airports :: More routes between these airports
Route: SXC V208 OCN V165 SARGS
File this flight plan on PilotEdge
Remarks: I-8
Altitude:
(Current/Filed)
5,000ft
Speed:
(Current/Filed)
105kts
Departed: 06-Dec-18 05:02 PM
Arrived: 06-Dec-18 05:57 PM
Distance/Time
Traveled:
74nm/0:55
Distance/Time
To Go:
Arrived

Flight Plot

Page will automatically refresh every two minutes.


Map Options




Map Legend


Flown Route
Filed Route
Departure Airport
Arrival Airport
Navaid (VOR, NDB)
Fix

Horizontal Profiles

Position Reports

Time Latitude Longitude Heading Altitude Ground
Speed
06-Dec-18 16:36 33.403293 -118.415954 45 1606ft 0kts
06-Dec-18 16:37 33.403293 -118.415954 45 1606ft 0kts
06-Dec-18 16:38 33.403293 -118.415954 45 1606ft 0kts
06-Dec-18 16:39 33.403293 -118.415954 45 1606ft 0kts
06-Dec-18 16:40 33.403293 -118.415954 45 1606ft 0kts
06-Dec-18 16:41 33.403293 -118.415954 45 1606ft 0kts
06-Dec-18 16:42 33.403293 -118.415954 45 1606ft 0kts
06-Dec-18 16:43 33.403293 -118.415954 45 1606ft 0kts
06-Dec-18 16:44 33.403293 -118.415954 45 1606ft 0kts
06-Dec-18 16:45 33.403293 -118.415954 45 1606ft 0kts
06-Dec-18 16:46 33.403293 -118.415954 45 1606ft 0kts
06-Dec-18 16:47 33.403293 -118.415954 45 1606ft 0kts
06-Dec-18 16:48 33.403293 -118.415954 45 1606ft 0kts
06-Dec-18 16:49 33.403293 -118.415954 45 1606ft 0kts
06-Dec-18 16:50 33.403293 -118.415954 45 1606ft 0kts
06-Dec-18 16:51 33.403293 -118.415954 45 1606ft 0kts
06-Dec-18 16:52 33.403293 -118.415954 45 1606ft 0kts
06-Dec-18 16:53 33.403293 -118.415954 45 1606ft 0kts
06-Dec-18 16:54 33.403293 -118.415954 45 1606ft 0kts
06-Dec-18 16:55 33.403293 -118.415954 45 1606ft 0kts
06-Dec-18 16:56 33.403293 -118.415954 45 1606ft 0kts
06-Dec-18 16:57 33.403293 -118.415954 45 1606ft 0kts
06-Dec-18 16:58 33.403590 -118.415846 11 1606ft 13kts
06-Dec-18 16:59 33.405440 -118.414395 42 1606ft 12kts
06-Dec-18 17:00 33.407316 -118.411813 239 1606ft 10kts
06-Dec-18 17:01 33.395494 -118.431272 239 1820ft 115kts
06-Dec-18 17:02 33.377181 -118.467641 244 2024ft 130kts
06-Dec-18 17:03 33.359693 -118.505434 219 2267ft 135kts
06-Dec-18 17:04 33.333522 -118.493932 93 2264ft 118kts
06-Dec-18 17:05 33.350148 -118.463562 61 2803ft 100kts
06-Dec-18 17:06 33.364440 -118.436842 65 3592ft 92kts
06-Dec-18 17:07 33.372214 -118.409679 96 4389ft 85kts
06-Dec-18 17:08 33.369729 -118.381507 100 4990ft 98kts
06-Dec-18 17:09 33.365440 -118.345483 100 4991ft 113kts
06-Dec-18 17:10 33.360659 -118.307958 100 4991ft 114kts
06-Dec-18 17:11 33.355755 -118.270290 100 4989ft 114kts
06-Dec-18 17:12 33.350834 -118.232742 100 4989ft 114kts
06-Dec-18 17:13 33.345884 -118.195118 100 4989ft 114kts
06-Dec-18 17:14 33.340907 -118.157386 100 4988ft 114kts
06-Dec-18 17:15 33.335940 -118.119819 100 4988ft 114kts
06-Dec-18 17:16 33.330942 -118.082085 100 4987ft 114kts
06-Dec-18 17:17 33.325931 -118.044389 100 4988ft 114kts
06-Dec-18 17:18 33.320973 -118.007216 99 4990ft 115kts
06-Dec-18 17:19 33.315930 -117.969406 99 4991ft 115kts
06-Dec-18 17:20 33.310851 -117.931493 99 4992ft 115kts
06-Dec-18 17:21 33.305762 -117.893576 99 4994ft 116kts
06-Dec-18 17:22 33.300626 -117.855398 98 4996ft 116kts
06-Dec-18 17:23 33.295460 -117.817071 98 4997ft 116kts
06-Dec-18 17:24 33.290278 -117.778722 98 4998ft 116kts
06-Dec-18 17:25 33.285090 -117.741169 98 5015ft 111kts
06-Dec-18 17:26 33.279656 -117.704930 99 5016ft 111kts
06-Dec-18 17:27 33.274174 -117.668531 99 5015ft 111kts
06-Dec-18 17:28 33.268709 -117.632399 99 5017ft 110kts
06-Dec-18 17:29 33.263191 -117.595932 98 5000ft 111kts
06-Dec-18 17:30 33.258189 -117.559570 97 5000ft 111kts
06-Dec-18 17:31 33.253709 -117.522711 97 5003ft 112kts
06-Dec-18 17:32 33.249185 -117.485603 97 5003ft 112kts
06-Dec-18 17:33 33.244644 -117.448432 97 5006ft 113kts
06-Dec-18 17:34 33.229875 -117.419139 165 5005ft 122kts
06-Dec-18 17:35 33.196013 -117.415282 169 5005ft 123kts
06-Dec-18 17:36 33.161925 -117.412720 171 5002ft 122kts
06-Dec-18 17:37 33.128037 -117.410579 171 4999ft 122kts
06-Dec-18 17:38 33.094242 -117.408479 171 4998ft 121kts
06-Dec-18 17:39 33.060531 -117.406386 171 4997ft 121kts
06-Dec-18 17:40 33.026970 -117.404303 171 4997ft 120kts
06-Dec-18 17:41 32.993628 -117.402236 171 4997ft 120kts
06-Dec-18 17:42 32.960233 -117.400167 171 4997ft 120kts
06-Dec-18 17:43 32.927079 -117.398153 171 4990ft 119kts
06-Dec-18 17:44 32.895203 -117.396344 172 4248ft 119kts
06-Dec-18 17:45 32.863249 -117.394470 172 3043ft 112kts
06-Dec-18 17:46 32.833117 -117.392665 173 1988ft 98kts
06-Dec-18 17:47 32.808194 -117.391085 174 1966ft 85kts
06-Dec-18 17:48 32.785089 -117.387730 141 1963ft 87kts
06-Dec-18 17:49 32.784133 -117.356201 99 1964ft 98kts
06-Dec-18 17:50 32.775380 -117.329103 141 1966ft 87kts
06-Dec-18 17:51 32.762259 -117.304338 114 1967ft 94kts
06-Dec-18 17:52 32.753942 -117.273981 110 1511ft 108kts
06-Dec-18 17:53 32.746064 -117.241850 114 803ft 92kts
06-Dec-18 17:54 32.739825 -117.214824 114 309ft 75kts
06-Dec-18 17:55 32.734524 -117.193363 114 28ft 61kts
06-Dec-18 17:56 32.733098 -117.184239 12 21ft 10kts
06-Dec-18 17:57 32.733267 -117.183894 94 21ft 7kts
06-Dec-18 17:58 32.733174 -117.178958 52 21ft 0kts
06-Dec-18 17:59 32.733174 -117.178958 52 21ft 0kts

Navigation Log

Ident Type
Flight plan parsing failed, navigation log unavailable